createdAt,value
2017-05-06T00:02:05.087Z,26.62
2017-05-06T00:04:31.019Z,20.78
2017-05-06T00:06:56.960Z,18.80
2017-05-06T00:09:22.908Z,27.32
2017-05-06T00:11:48.880Z,22.66
2017-05-06T00:14:14.812Z,24.58
2017-05-06T00:16:41.363Z,23.72
2017-05-06T00:19:07.402Z,26.74
2017-05-06T00:21:34.107Z,28.74
2017-05-06T00:24:00.133Z,27.24
2017-05-06T00:26:26.120Z,32.80
2017-05-06T00:28:52.223Z,26.60
2017-05-06T00:31:18.989Z,24.54
2017-05-06T00:33:45.000Z,31.60
2017-05-06T00:36:11.010Z,27.58
2017-05-06T00:38:37.794Z,34.14
2017-05-06T00:41:03.874Z,31.08
2017-05-06T00:43:30.621Z,27.16
2017-05-06T00:45:57.365Z,27.96
2017-05-06T00:48:24.138Z,26.44
2017-05-06T00:50:50.151Z,27.32
2017-05-06T00:53:16.160Z,33.14
2017-05-06T00:55:42.171Z,30.44
2017-05-06T00:58:08.953Z,31.72
2017-05-06T01:00:34.989Z,33.00
2017-05-06T01:03:01.056Z,27.86
2017-05-06T01:05:27.189Z,39.14
2017-05-06T01:07:53.202Z,30.20
2017-05-06T01:10:19.950Z,24.10
2017-05-06T01:12:46.500Z,28.86
2017-05-06T01:15:12.534Z,32.54
2017-05-06T01:17:38.558Z,27.30
2017-05-06T01:20:04.575Z,29.32
2017-05-06T01:22:30.669Z,38.40
2017-05-06T01:24:57.421Z,29.90
2017-05-06T01:27:23.435Z,28.18
2017-05-06T01:29:49.545Z,32.50
2017-05-06T01:32:16.300Z,26.00
2017-05-06T01:34:42.305Z,29.92
2017-05-06T01:37:08.277Z,27.50
2017-05-06T01:39:34.221Z,35.62
2017-05-06T01:42:00.890Z,34.02
2017-05-06T01:44:26.835Z,32.04
2017-05-06T01:46:52.878Z,34.40
2017-05-06T01:49:18.840Z,30.32
2017-05-06T01:51:44.785Z,36.56
2017-05-06T01:56:42.780Z,41.52
2017-05-06T01:59:08.732Z,25.92
2017-05-06T02:01:35.426Z,27.98
2017-05-06T02:04:01.445Z,31.80
2017-05-06T02:06:27.395Z,32.84
2017-05-06T02:08:53.344Z,31.24
2017-05-06T02:11:19.344Z,27.36
2017-05-06T02:13:45.290Z,31.84
2017-05-06T02:16:11.984Z,29.80
2017-05-06T02:18:37.915Z,30.94
2017-05-06T02:21:03.848Z,29.78
2017-05-06T02:23:29.956Z,27.70
2017-05-06T02:25:55.892Z,39.14
2017-05-06T02:28:21.833Z,27.96
2017-05-06T02:30:48.551Z,29.40
2017-05-06T02:33:14.483Z,30.74
2017-05-06T02:35:40.509Z,28.58
2017-05-06T02:38:07.192Z,29.02
2017-05-06T02:40:33.156Z,27.62
2017-05-06T02:42:59.087Z,37.04
2017-05-06T02:45:25.767Z,35.08
2017-05-06T02:47:51.713Z,35.30
2017-05-06T02:50:17.650Z,34.66
2017-05-06T02:52:43.671Z,35.42
2017-05-06T02:55:09.608Z,34.18
2017-05-06T02:57:36.285Z,31.50
2017-05-06T03:00:02.223Z,34.84
2017-05-06T03:02:28.204Z,40.50
2017-05-06T03:04:54.974Z,41.84
2017-05-06T03:07:20.907Z,37.44
2017-05-06T03:09:46.847Z,36.18
2017-05-06T03:12:12.804Z,44.32
2017-05-06T03:14:39.484Z,31.84
2017-05-06T03:17:05.420Z,46.08
2017-05-06T03:19:31.376Z,38.68
2017-05-06T03:21:58.081Z,34.10
2017-05-06T03:24:24.144Z,40.38
2017-05-06T03:26:50.845Z,26.52
2017-05-06T03:29:16.789Z,33.58
2017-05-06T03:31:43.456Z,38.66
2017-05-06T03:34:09.392Z,32.86
2017-05-06T03:36:35.423Z,42.78
2017-05-06T03:39:01.347Z,47.96
2017-05-06T03:41:27.288Z,35.86
2017-05-06T03:43:53.223Z,40.16
2017-05-06T03:46:19.186Z,38.32
2017-05-06T03:48:45.153Z,38.22
2017-05-06T03:51:11.123Z,35.28
2017-05-06T03:53:37.142Z,38.40
2017-05-06T03:56:03.085Z,36.54
2017-05-06T03:58:29.035Z,43.08
2017-05-06T04:00:54.966Z,40.80
2017-05-06T04:03:20.906Z,41.68
2017-05-06T04:05:47.687Z,32.76
2017-05-06T04:08:13.630Z,38.82
2017-05-06T04:10:39.584Z,45.08
2017-05-06T04:13:06.255Z,45.48
2017-05-06T04:15:32.191Z,32.00
2017-05-06T04:17:58.206Z,29.56
2017-05-06T04:20:24.080Z,37.24
2017-05-06T04:22:49.942Z,36.98
2017-05-06T04:25:15.824Z,42.10
2017-05-06T04:27:41.705Z,26.64
2017-05-06T04:30:07.576Z,33.02
2017-05-06T04:32:33.458Z,32.18
2017-05-06T04:35:00.071Z,36.84
2017-05-06T04:37:25.963Z,29.90
2017-05-06T04:39:51.830Z,42.04
2017-05-06T04:42:18.459Z,37.78
2017-05-06T04:44:45.083Z,41.84
2017-05-06T04:47:10.984Z,30.32
2017-05-06T04:49:36.864Z,33.54
2017-05-06T04:52:02.757Z,43.22
2017-05-06T04:54:28.616Z,32.24
2017-05-06T04:56:54.575Z,41.46
2017-05-06T04:59:20.484Z,37.76
2017-05-06T05:01:46.364Z,25.20
2017-05-06T05:04:12.228Z,30.48
2017-05-06T05:06:38.107Z,29.60
2017-05-06T05:09:04.055Z,28.84
2017-05-06T05:11:29.972Z,26.86
2017-05-06T05:13:55.848Z,33.98
2017-05-06T05:16:21.730Z,27.64
2017-05-06T05:18:47.606Z,31.36
2017-05-06T05:21:13.483Z,30.56
2017-05-06T05:23:40.119Z,30.08
2017-05-06T05:26:06.073Z,28.04
2017-05-06T05:28:31.942Z,29.76
2017-05-06T05:30:57.801Z,25.58
2017-05-06T05:33:23.664Z,27.64
2017-05-06T05:35:49.528Z,29.42
2017-05-06T05:38:16.135Z,23.24
2017-05-06T05:40:42.019Z,27.50
2017-05-06T05:43:07.918Z,27.26
2017-05-06T05:45:34.627Z,29.34
2017-05-06T05:48:00.613Z,26.82
2017-05-06T05:50:26.473Z,37.06
2017-05-06T05:52:53.079Z,28.28
2017-05-06T05:55:18.944Z,26.90
2017-05-06T05:57:44.831Z,23.92
2017-05-06T06:00:10.796Z,25.26
2017-05-06T06:02:36.693Z,25.72
2017-05-06T06:05:03.519Z,21.80
2017-05-06T06:07:29.577Z,27.66
2017-05-06T06:09:55.487Z,27.24
2017-05-06T06:12:21.489Z,25.46
2017-05-06T06:14:48.101Z,26.82
2017-05-06T06:17:14.080Z,27.28
2017-05-06T06:19:40.085Z,21.84
2017-05-06T06:22:06.828Z,30.58
2017-05-06T06:24:33.725Z,27.92
2017-05-06T06:26:59.599Z,29.18
2017-05-06T06:29:25.500Z,27.50
2017-05-06T06:31:52.268Z,21.94
2017-05-06T06:34:18.279Z,23.16
2017-05-06T06:36:44.521Z,23.08
2017-05-06T06:39:10.559Z,24.24
2017-05-06T06:41:36.596Z,27.22
2017-05-06T06:44:02.645Z,22.02
2017-05-06T06:46:30.042Z,21.38
2017-05-06T06:48:56.524Z,21.88
2017-05-06T06:51:22.766Z,24.64
2017-05-06T06:53:48.615Z,21.14
2017-05-06T06:56:14.719Z,22.68
2017-05-06T06:58:41.496Z,21.16
2017-05-06T07:01:07.467Z,21.48
2017-05-06T07:03:34.929Z,20.54
2017-05-06T07:06:00.197Z,17.80
2017-05-06T07:08:26.228Z,21.14
2017-05-06T07:10:53.078Z,17.48
2017-05-06T07:13:19.042Z,16.54
2017-05-06T07:15:45.483Z,21.94
2017-05-06T07:18:11.532Z,19.08
2017-05-06T07:20:37.579Z,19.30
2017-05-06T07:23:04.229Z,19.46
2017-05-06T07:25:30.848Z,17.24
2017-05-06T07:27:56.718Z,21.40
2017-05-06T07:30:22.643Z,17.78
2017-05-06T07:32:48.567Z,16.50
2017-05-06T07:35:14.432Z,15.54
2017-05-06T07:37:40.405Z,17.98
2017-05-06T07:40:06.271Z,17.28
2017-05-06T07:42:32.173Z,17.02
2017-05-06T07:44:58.037Z,13.78
2017-05-06T07:47:24.783Z,18.56
2017-05-06T07:49:50.684Z,16.36
2017-05-06T07:52:17.308Z,15.28
2017-05-06T07:54:43.204Z,19.74
2017-05-06T07:57:09.050Z,15.34
2017-05-06T07:59:35.680Z,13.58
2017-05-06T08:02:02.303Z,16.32
2017-05-06T08:04:28.191Z,12.50
2017-05-06T08:06:54.081Z,15.74
2017-05-06T08:09:20.724Z,12.16
2017-05-06T08:11:47.330Z,17.00
2017-05-06T08:14:13.944Z,14.12
2017-05-06T08:16:39.832Z,12.06
2017-05-06T08:19:05.829Z,12.30
2017-05-06T08:21:32.440Z,12.44
2017-05-06T08:23:58.324Z,13.44
2017-05-06T08:26:24.202Z,12.40
2017-05-06T08:28:50.862Z,11.80
2017-05-06T08:31:16.776Z,14.00
2017-05-06T08:33:42.651Z,12.14
2017-05-06T08:36:08.618Z,14.76
2017-05-06T08:38:34.503Z,11.14
2017-05-06T08:41:01.120Z,12.38
2017-05-06T08:43:27.000Z,9.84
2017-05-06T08:45:52.895Z,13.10
2017-05-06T08:48:18.895Z,10.60
2017-05-06T08:50:44.813Z,12.02
2017-05-06T08:53:10.693Z,12.62
2017-05-06T08:55:36.570Z,12.56
2017-05-06T08:58:03.256Z,10.06
2017-05-06T09:00:29.127Z,8.96
2017-05-06T09:02:55.751Z,11.88
2017-05-06T09:05:21.619Z,9.68
2017-05-06T09:07:47.493Z,10.42
2017-05-06T09:10:14.120Z,10.88
2017-05-06T09:12:40.010Z,11.18
2017-05-06T09:15:06.049Z,10.70
2017-05-06T09:17:31.949Z,9.00
2017-05-06T09:19:57.827Z,10.60
2017-05-06T09:22:23.707Z,10.18
2017-05-06T09:24:49.625Z,9.02
2017-05-06T09:27:15.674Z,10.84
2017-05-06T09:29:42.303Z,10.44
2017-05-06T09:32:08.255Z,11.12
2017-05-06T09:34:34.140Z,10.72
2017-05-06T09:37:00.079Z,12.36
2017-05-06T09:39:26.699Z,12.02
2017-05-06T09:41:52.594Z,9.00
2017-05-06T09:44:18.472Z,11.32
2017-05-06T09:46:44.361Z,10.36
2017-05-06T09:49:10.242Z,11.54
2017-05-06T09:51:36.129Z,10.00
2017-05-06T09:54:02.045Z,9.98
2017-05-06T09:56:28.686Z,11.46
2017-05-06T09:58:54.612Z,9.54
2017-05-06T10:01:20.531Z,9.02
2017-05-06T10:03:46.432Z,11.62
2017-05-06T10:06:13.105Z,10.72
2017-05-06T10:08:39.007Z,8.32
2017-05-06T10:11:04.888Z,8.92
2017-05-06T10:13:30.775Z,12.74
2017-05-06T10:15:56.645Z,9.72
2017-05-06T10:18:23.299Z,10.30
2017-05-06T10:20:49.232Z,9.04
2017-05-06T10:23:15.096Z,11.32
2017-05-06T10:25:40.968Z,9.02
2017-05-06T10:28:06.855Z,13.30
2017-05-06T10:30:33.560Z,11.92
2017-05-06T10:32:59.446Z,11.44
2017-05-06T10:35:25.324Z,8.82
2017-05-06T10:37:51.223Z,11.52
2017-05-06T10:40:17.195Z,9.58
2017-05-06T10:42:43.911Z,17.74
2017-05-06T10:45:10.521Z,28.26
2017-05-06T10:47:36.412Z,12.86
2017-05-06T10:50:02.330Z,26.64
2017-05-06T10:52:29.019Z,15.08
2017-05-06T10:54:54.901Z,12.90
2017-05-06T10:57:20.807Z,15.98
2017-05-06T10:59:46.791Z,14.56
2017-05-06T11:02:13.438Z,15.34
2017-05-06T11:04:40.109Z,15.20
2017-05-06T11:07:05.975Z,17.88
2017-05-06T11:09:31.869Z,11.14
2017-05-06T11:11:57.748Z,9.88
2017-05-06T11:14:23.637Z,11.88
2017-05-06T11:16:49.641Z,11.56
2017-05-06T11:19:15.510Z,10.62
2017-05-06T11:21:41.382Z,8.68
2017-05-06T11:24:07.341Z,14.40
2017-05-06T11:26:33.275Z,11.22
2017-05-06T11:28:59.248Z,10.64
2017-05-06T11:31:25.169Z,11.28
2017-05-06T11:33:51.056Z,9.62
2017-05-06T11:36:16.943Z,28.52
2017-05-06T11:38:43.573Z,14.26
2017-05-06T11:41:09.478Z,29.18
2017-05-06T11:43:35.556Z,12.60
2017-05-06T11:46:01.532Z,16.00
2017-05-06T11:48:28.231Z,14.90
2017-05-06T11:50:54.124Z,10.62
2017-05-06T11:53:20.008Z,9.56
2017-05-06T11:55:46.641Z,9.86
2017-05-06T11:58:13.258Z,9.86
2017-05-06T12:00:39.200Z,10.48
2017-05-06T12:03:05.033Z,11.84
2017-05-06T12:05:31.656Z,8.36
2017-05-06T12:07:58.300Z,9.08
2017-05-06T12:10:24.919Z,7.90
2017-05-06T12:12:50.811Z,10.74
2017-05-06T12:15:16.679Z,10.56
2017-05-06T12:17:43.360Z,9.22
2017-05-06T12:20:09.243Z,9.58
2017-05-06T12:22:35.950Z,8.28
2017-05-06T12:25:01.830Z,9.68
2017-05-06T12:27:27.712Z,10.26
2017-05-06T12:29:54.461Z,8.38
2017-05-06T12:32:20.372Z,8.40
2017-05-06T12:34:47.285Z,8.98
2017-05-06T12:37:13.427Z,8.28
2017-05-06T12:39:40.039Z,9.76
2017-05-06T12:42:05.934Z,10.32
2017-05-06T12:44:31.871Z,7.52
2017-05-06T12:46:58.433Z,8.70
2017-05-06T12:49:24.354Z,8.92
2017-05-06T12:51:50.234Z,12.66
2017-05-06T12:54:16.120Z,9.78
2017-05-06T12:56:42.756Z,8.54
2017-05-06T12:59:09.414Z,8.50
2017-05-06T15:48:26.905Z,10.78
2017-05-06T15:50:52.771Z,7.42
2017-05-06T15:53:18.662Z,9.02
2017-05-06T15:55:44.559Z,8.56
2017-05-06T15:58:10.432Z,9.88
2017-05-06T16:00:36.300Z,8.88
2017-05-06T16:03:02.185Z,7.22
2017-05-06T16:05:28.076Z,7.14
2017-05-06T16:07:54.390Z,8.40
2017-05-06T16:10:20.236Z,7.94
2017-05-06T16:12:46.120Z,6.88
2017-05-06T16:15:12.008Z,9.78
2017-05-06T16:17:38.742Z,9.26
2017-05-06T16:20:05.369Z,8.32
2017-05-06T16:22:31.233Z,7.64
2017-05-06T16:24:57.184Z,7.62
2017-05-06T16:27:23.090Z,7.14
2017-05-06T16:29:48.957Z,7.54
2017-05-06T16:32:15.002Z,9.02
2017-05-06T16:34:40.836Z,8.78
2017-05-06T16:37:06.713Z,10.24
2017-05-06T16:39:32.594Z,7.44
2017-05-06T16:41:58.527Z,8.60
2017-05-06T16:44:24.683Z,8.02
2017-05-06T16:46:50.547Z,7.08
2017-05-06T16:49:16.444Z,7.96
2017-05-06T16:51:42.350Z,10.62
2017-05-06T16:54:08.970Z,9.64
2017-05-06T16:56:34.940Z,8.58
2017-05-06T16:59:00.869Z,8.04
2017-05-06T17:01:27.532Z,8.68
2017-05-06T17:06:24.329Z,8.55
2017-05-06T17:08:51.036Z,7.82
2017-05-06T17:11:16.900Z,8.10
2017-05-06T17:13:42.874Z,8.08
2017-05-06T17:16:08.851Z,7.00
2017-05-06T17:18:34.753Z,7.06
2017-05-06T17:21:01.417Z,8.74
2017-05-06T17:23:27.460Z,8.76
2017-05-06T17:25:53.725Z,6.64
2017-05-06T17:28:20.444Z,7.18
2017-05-06T17:30:47.371Z,8.34
2017-05-06T17:33:13.385Z,8.12
2017-05-06T17:35:40.122Z,6.58
2017-05-06T17:40:37.224Z,8.57
2017-05-06T17:43:03.228Z,8.24
2017-05-06T17:45:29.202Z,6.16
2017-05-06T17:47:55.828Z,7.68
2017-05-06T17:50:22.541Z,6.12
2017-05-06T17:52:48.425Z,7.76
2017-05-06T17:55:14.303Z,8.28
2017-05-06T17:57:40.923Z,6.88
2017-05-06T18:00:06.835Z,9.32
2017-05-06T18:02:32.805Z,8.48
2017-05-06T18:04:58.683Z,6.86
2017-05-06T18:07:24.554Z,7.86
2017-05-06T18:09:50.576Z,7.72
2017-05-06T18:12:16.698Z,7.96
2017-05-06T18:14:43.372Z,7.98
2017-05-06T18:17:09.257Z,8.38
2017-05-06T18:19:35.134Z,7.62
2017-05-06T18:22:01.767Z,10.14
2017-05-06T18:24:27.650Z,6.10
2017-05-06T18:26:53.752Z,7.64
2017-05-06T18:29:19.706Z,9.26
2017-05-06T18:31:45.664Z,8.86
2017-05-06T18:34:11.522Z,7.32
2017-05-06T18:36:37.403Z,7.22
2017-05-06T18:39:04.115Z,7.70
2017-05-06T18:41:29.998Z,8.36
2017-05-06T18:43:55.904Z,7.56
2017-05-06T18:46:22.563Z,6.58
2017-05-06T18:48:48.471Z,6.70
2017-05-06T18:51:14.497Z,8.18
2017-05-06T18:53:40.381Z,7.46
2017-05-06T18:56:07.009Z,8.54
2017-05-06T18:58:33.654Z,8.86
2017-05-06T19:01:00.358Z,8.36
2017-05-06T19:03:26.295Z,8.26
2017-05-06T19:05:52.941Z,7.98
2017-05-06T19:08:19.108Z,8.56
2017-05-06T19:13:15.880Z,10.30
2017-05-06T19:15:42.620Z,8.48
2017-05-06T19:18:08.495Z,10.50
2017-05-06T19:20:35.175Z,7.74
2017-05-06T19:23:01.052Z,11.86
2017-05-06T19:25:27.675Z,10.78
2017-05-06T19:27:53.645Z,9.46
2017-05-06T19:30:19.527Z,13.10
2017-05-06T19:32:46.304Z,10.48
2017-05-06T19:35:12.193Z,10.52
2017-05-06T19:37:38.098Z,8.68
2017-05-06T19:40:04.037Z,139.42
2017-05-06T19:42:30.688Z,56.48
2017-05-06T19:44:56.568Z,43.78
2017-05-06T19:47:22.498Z,21.32
2017-05-06T19:49:48.627Z,12.28
2017-05-06T19:52:14.756Z,9.78
2017-05-06T19:54:41.370Z,9.50
2017-05-06T19:57:07.235Z,9.28
2017-05-06T19:59:33.369Z,13.30
2017-05-06T20:01:59.465Z,8.98
2017-05-06T20:04:25.473Z,8.18
2017-05-06T20:06:51.348Z,9.98
2017-05-06T20:09:17.282Z,9.76
2017-05-06T20:11:44.151Z,12.88
2017-05-06T20:14:10.025Z,10.32
2017-05-06T20:16:35.956Z,8.96
2017-05-06T20:19:01.836Z,12.54
2017-05-06T20:21:28.503Z,18.68
2017-05-06T20:23:54.394Z,10.72
2017-05-06T20:26:21.048Z,8.70
2017-05-06T20:28:47.726Z,8.66
2017-05-06T20:31:13.709Z,8.42
2017-05-06T20:33:40.299Z,9.20
2017-05-06T20:36:06.206Z,8.52
2017-05-06T20:38:32.091Z,8.98
2017-05-06T20:40:58.116Z,10.10
2017-05-06T20:43:23.987Z,7.90
2017-05-06T20:45:49.890Z,8.96
2017-05-06T20:48:15.769Z,11.98
2017-05-06T20:50:41.655Z,8.40
2017-05-06T20:53:08.375Z,5.74
2017-05-06T20:55:34.264Z,7.86
2017-05-06T20:58:00.153Z,11.18
2017-05-06T21:00:26.781Z,12.54
2017-05-06T21:02:53.416Z,7.90
2017-05-06T21:05:20.840Z,8.90
2017-05-06T21:07:46.731Z,8.92
2017-05-06T21:10:12.675Z,9.26
2017-05-06T21:12:38.584Z,7.60
2017-05-06T21:15:04.500Z,9.38
2017-05-06T21:17:30.511Z,8.36
2017-05-06T21:19:56.397Z,8.48
2017-05-06T21:22:23.025Z,11.38
2017-05-06T21:24:49.713Z,8.46
2017-05-06T21:27:15.580Z,7.72
2017-05-06T21:29:42.282Z,9.40
2017-05-06T21:32:08.168Z,11.20
2017-05-06T21:34:34.096Z,12.08
2017-05-06T21:37:00.252Z,9.06
2017-05-06T21:39:26.129Z,9.72
2017-05-06T21:41:52.091Z,10.56
2017-05-06T21:44:18.020Z,10.98
2017-05-06T21:46:43.907Z,12.38
2017-05-06T21:49:09.808Z,9.94
2017-05-06T21:51:35.724Z,10.92
2017-05-06T21:54:02.434Z,9.70
2017-05-06T21:56:28.384Z,10.16
2017-05-06T21:58:54.223Z,11.00
2017-05-06T22:01:20.205Z,12.08
2017-05-06T22:03:46.071Z,13.90
2017-05-06T22:06:12.109Z,11.86
2017-05-06T22:08:38.003Z,12.76
2017-05-06T22:11:03.924Z,15.08
2017-05-06T22:13:29.921Z,11.42
2017-05-06T22:15:56.560Z,13.58
2017-05-06T22:18:23.358Z,15.28
2017-05-06T22:20:49.249Z,11.06
2017-05-06T22:23:15.131Z,14.76
2017-05-06T22:25:41.805Z,11.56
2017-05-06T22:28:07.671Z,10.76
2017-05-06T22:30:33.621Z,12.30
2017-05-06T22:33:00.269Z,10.04
2017-05-06T22:35:26.401Z,10.96
2017-05-06T22:37:52.638Z,8.50
2017-05-06T22:40:19.377Z,10.40
2017-05-06T22:42:46.151Z,14.46
2017-05-06T22:45:12.024Z,11.26
2017-05-06T22:47:37.929Z,11.34
2017-05-06T22:50:03.812Z,13.56
2017-05-06T22:52:29.709Z,9.40
2017-05-06T22:54:55.703Z,12.16
2017-05-06T22:57:21.643Z,12.42
2017-05-06T22:59:47.492Z,12.36
2017-05-06T23:02:13.371Z,12.96
2017-05-06T23:04:39.616Z,11.18
2017-05-06T23:07:05.503Z,12.28
2017-05-06T23:09:31.391Z,13.94
2017-05-06T23:11:57.389Z,11.10
2017-05-06T23:14:23.261Z,15.16
2017-05-06T23:16:49.277Z,12.72
2017-05-06T23:19:15.150Z,12.82
2017-05-06T23:21:41.036Z,10.24
2017-05-06T23:24:06.917Z,13.24
2017-05-06T23:26:32.850Z,12.96
2017-05-06T23:28:59.566Z,15.38
2017-05-06T23:31:25.457Z,11.78
2017-05-06T23:33:51.368Z,10.30
2017-05-06T23:36:17.243Z,12.04
2017-05-06T23:38:43.900Z,12.28
2017-05-06T23:41:09.909Z,12.06
2017-05-06T23:43:36.520Z,14.10
2017-05-06T23:46:02.396Z,15.60
2017-05-06T23:48:28.288Z,13.42
2017-05-06T23:50:54.939Z,18.14
2017-05-06T23:53:20.815Z,12.00
2017-05-06T23:55:46.704Z,12.48
2017-05-06T23:58:12.690Z,12.84
